Yampa, CO

6:18 AM MDT on August 22, 2014 (GMT -0600)
Oak Creek | Change Station
CLOSE
Current Station
Personal Weather Station
Location: Oak Creek, CO
Elevation: 7444 ft
Nearby Weather Stations

Elev 7444 ft 40.27 °N, 106.96 °W | Updated 4 seconds ago

Overcast
Overcast
49.8 °F
Feels Like 50 °F
N
0.0
Wind Variable Wind from WSW
Gusts 0.0 mph

Today
High -- | Low -- °F
--% Chance of Precip.
Yesterday
High -- | Low -- °F
Precip. -- in
6:25 AM 7:54 PM
Waning Crescent, 8% visible
Pressure 30.24 in
Visibility 10.0 miles
Clouds Overcast 8000 ft
Windchill 50 °F
Dew Point 47 °F
Humidity 91%
Rainfall 0.00 in
Snow Depth 0 in , 0 in , 2 in
UV 0 out of 12
Pollen 9.10 out of 12
Air Quality Not available.
Flu Activity Not available.
METAR KSBS 221214Z AUTO 00000KT 10SM OVC080 11/09 A3024 RMK AO1 T01090085

More Conditions Fewer Conditions

Pressure 30.24 in
Visibility 10.0 miles
Clouds Overcast 8000 ft
Windchill 50 °F
Dew Point 47 °F
Humidity 91%
Rainfall 0.00 in
Snow Depth 0 in , 0 in , 2 in
UV 0 out of 12
Pollen 9.10 out of 12
Air Quality Not available.
Flu Activity Not available.
METAR KSBS 221214Z AUTO 00000KT 10SM OVC080 11/09 A3024 RMK AO1 T01090085

More Conditions Fewer Conditions

10-Day Weather Forecast

Almanac

Astronomy

Aug. 22, 2014 Rise Set
Actual Time 6:25 AM MDT 7:54 PM MDT
Civil Twilight 5:57 AM MDT 8:22 PM MDT
Nautical Twilight 5:22 AM MDT 8:57 PM MDT
Astronomical Twilight 4:46 AM MDT 9:33 PM MDT
Moon 3:50 AM MDT 6:04 PM MDT
Length of Visible Light 14h 25m
Length of Day
13h 28m
Tomorrow will be 2m 26s shorter.
Waning Crescent, 8% of the Moon is Illuminated
Today
Waning Crescent
Aug 25
New
Sep 2
First Quarter
Sep 8
Full
Sep 15
Last Quarter

Today's Extremes

State Highs State Lows

Community

WunderPhotos

Upload Photos

1,746,155 photos uploaded!

WunderBlogs® & News

By Dr. Jeff Masters
Director of Meteorology, Weather Underground
By Kari Strenfel
Meteorologist, Weather Underground
By Christopher C. Burt
Weather Historian, Weather Underground
August 22, 2014
August 22, 2014
August 22, 2014

Nearby

Snow Depth

Station Depth Elevation
Bear RIver 0 in 9080 ft
Trapper Lake 0 in 9700 ft
Ripple Creek 2 in 10340 ft
Columbine 0 in 9160 ft
Dry Lake 0 in 8400 ft

Earthquake Activity

City Distance Mag. Time & Date
No recent earthquake activity has been reported nearby.
Minimum magnitude displayed is 2.5.

Coastal Water Temperatures

Place Temperature
No Stations Reporting

Nearby Weather Stations